Time;durP1;ratioP1;P1;durP2;ratioP2;P2;SDS_P1;SDS_P2;PMS_P1;PMS_P2;Temp;Humidity;BMP_temperature;BMP_pressure;BME280_temperature;BME280_humidity;BME280_pressure;Samples;Min_cycle;Max_cycle;Signal;HPM_P1;HPM_P2
2023/08/19 00:01:28;;;;;;;5.30;3.87;;;24.60;67.70;;;25.15;47.66;95042.63;5075311;28;20477;-57
2023/08/19 00:03:56;;;;;;;5.80;4.10;;;24.50;67.90;;;25.11;47.69;95052.19;5069089;28;20478;-59
2023/08/19 00:06:36;;;;;;;5.77;4.30;;;24.50;68.40;;;25.07;47.45;95049.13;5067004;28;20449;-58
2023/08/19 00:09:04;;;;;;;6.60;3.00;;;24.50;68.50;;;25.03;47.69;95054.13;5066491;28;20484;-58
2023/08/19 00:11:32;;;;;;;4.20;3.90;;;24.40;68.50;;;24.99;48.32;95055.63;5073217;28;20442;-58
2023/08/19 00:13:59;;;;;;;8.03;3.70;;;24.40;68.60;;;24.98;47.85;95056.69;5066415;28;20994;-58
2023/08/19 00:16:27;;;;;;;8.20;3.50;;;24.40;68.70;;;24.96;48.37;95056.09;5069541;28;20521;-58
2023/08/19 00:18:56;;;;;;;13.57;3.60;;;24.40;68.90;;;24.94;48.10;95052.81;5072963;28;20528;-58
2023/08/19 00:21:23;;;;;;;5.63;3.43;;;24.40;69.00;;;24.90;47.99;95048.09;5066240;28;20446;-58
2023/08/19 00:23:50;;;;;;;4.00;3.57;;;24.30;69.80;;;24.84;48.51;95042.56;5068828;28;20876;-58
2023/08/19 00:26:17;;;;;;;6.10;3.73;;;24.30;69.20;;;24.78;48.79;95039.94;5070991;28;20546;-57
2023/08/19 00:28:45;;;;;;;5.33;3.40;;;24.20;69.20;;;24.72;48.95;95027.41;5072683;28;20796;-59
2023/08/19 00:31:12;;;;;;;6.13;3.87;;;24.20;69.50;;;24.67;48.56;95036.13;5075305;28;20465;-58
2023/08/19 00:33:39;;;;;;;6.70;3.67;;;24.10;70.00;;;24.60;49.12;95027.31;5068264;28;20479;-57
2023/08/19 00:36:08;;;;;;;14.30;4.03;;;24.10;70.00;;;24.53;48.82;95025.47;5066888;28;21061;-59
2023/08/19 00:38:35;;;;;;;9.33;4.50;;;24.00;70.20;;;24.49;48.78;95023.47;5066079;28;20467;-57
2023/08/19 00:41:03;;;;;;;4.90;3.80;;;23.90;70.10;;;24.45;49.49;95027.66;5066823;28;20462;-59
2023/08/19 00:43:31;;;;;;;5.43;3.60;;;23.90;70.10;;;24.42;49.50;95025.41;5076958;28;20564;-59
2023/08/19 00:45:58;;;;;;;6.73;3.10;;;23.90;70.30;;;24.42;49.10;95020.03;5067403;28;21313;-59
2023/08/19 00:48:25;;;;;;;8.20;3.80;;;23.80;70.40;;;24.42;49.52;95028.09;5070697;28;20466;-58
2023/08/19 00:50:52;;;;;;;3.60;3.40;;;23.90;70.60;;;24.41;49.75;95027.25;5071624;28;20882;-58
2023/08/19 00:53:21;;;;;;;9.60;3.27;;;23.80;70.70;;;24.42;48.96;95020.03;5071359;28;20489;-60
2023/08/19 00:55:48;;;;;;;7.47;3.37;;;23.80;70.70;;;24.43;48.93;95027.03;5071377;28;20458;-58
2023/08/19 00:58:16;;;;;;;10.90;3.30;;;23.80;70.70;;;24.45;49.41;95028.47;5073160;28;20486;-59
2023/08/19 01:00:43;;;;;;;5.03;3.87;;;23.80;70.70;;;24.45;48.94;95023.09;5081044;28;20445;-59
2023/08/19 01:03:10;;;;;;;4.20;3.80;;;23.80;70.60;;;24.44;49.12;95023.31;5074812;28;20521;-58
2023/08/19 01:05:46;;;;;;;4.17;3.77;;;23.80;70.70;;;24.45;49.64;95030.34;5072273;28;20986;-60
2023/08/19 01:08:18;;;;;;;5.60;3.47;;;23.80;70.70;;;24.44;49.47;95026.00;5075033;28;20560;-58
2023/08/19 01:10:52;;;;;;;4.10;3.70;;;23.80;70.70;;;24.42;49.50;95030.78;5070388;28;20442;-58
2023/08/19 01:13:21;;;;;;;8.30;3.90;;;23.80;70.70;;;24.40;49.20;95030.19;5074062;28;21006;-58
2023/08/19 01:15:53;;;;;;;8.53;3.80;;;23.80;70.70;;;24.39;49.46;95034.75;5074246;28;20484;-59
2023/08/19 01:18:21;;;;;;;4.03;3.47;;;23.80;70.70;;;24.38;49.86;95034.97;5070559;28;20501;-59
2023/08/19 01:20:48;;;;;;;6.50;3.80;;;23.80;70.70;;;24.33;49.08;95030.25;5072234;28;20485;-58
2023/08/19 01:23:17;;;;;;;4.17;3.53;;;23.80;70.70;;;24.30;49.61;95036.88;5073716;28;20478;-60
2023/08/19 01:25:45;;;;;;;6.47;3.47;;;23.80;70.70;;;24.24;50.01;95031.59;5072757;28;20458;-59
2023/08/19 01:28:14;;;;;;;5.20;3.90;;;23.70;70.70;;;24.21;50.20;95035.53;5072013;28;20575;-60
2023/08/19 01:30:41;;;;;;;8.03;3.93;;;23.60;71.40;;;24.13;49.47;95031.25;5072622;28;21356;-59
2023/08/19 01:33:08;;;;;;;5.67;3.57;;;23.60;71.30;;;24.07;50.33;95023.25;5075820;28;20470;-58
2023/08/19 01:35:39;;;;;;;5.87;3.87;;;23.50;71.40;;;24.01;49.75;95021.44;5074612;28;20702;-59
2023/08/19 01:38:10;;;;;;;7.27;4.23;;;23.50;71.60;;;23.93;50.61;95015.28;5070991;28;20494;-58
2023/08/19 01:40:37;;;;;;;15.07;4.37;;;23.40;71.80;;;23.89;50.13;95011.44;5074061;28;20496;-57
2023/08/19 01:43:07;;;;;;;8.03;4.07;;;23.30;71.90;;;23.86;50.71;95014.56;5077092;28;20981;-61
2023/08/19 01:45:34;;;;;;;5.40;3.80;;;23.30;72.40;;;23.83;50.70;95009.59;5072836;28;20457;-59
2023/08/19 01:48:02;;;;;;;8.63;4.07;;;23.30;72.40;;;23.81;50.65;95014.34;5071132;28;20540;-58
2023/08/19 01:50:29;;;;;;;4.57;4.20;;;23.30;72.40;;;23.80;50.52;95016.22;5072500;28;20470;-58
2023/08/19 01:52:57;;;;;;;10.73;5.60;;;23.30;72.40;;;23.79;50.40;95013.75;5074737;28;20475;-58
2023/08/19 01:55:24;;;;;;;11.47;4.63;;;23.20;72.40;;;23.77;50.42;95005.09;5072385;28;20537;-60
2023/08/19 01:57:51;;;;;;;6.43;4.87;;;23.20;72.80;;;23.77;50.33;95013.16;5073802;28;20489;-59
2023/08/19 02:00:20;;;;;;;12.13;4.70;;;23.20;72.70;;;23.77;50.63;95021.19;5075977;28;20469;-59
2023/08/19 02:02:47;;;;;;;6.60;3.60;;;23.20;72.90;;;23.79;50.67;95016.44;5071020;28;20482;-59
2023/08/19 02:05:15;;;;;;;14.03;4.30;;;23.20;72.90;;;23.82;51.13;95018.69;5073153;28;21330;-58
2023/08/19 02:07:42;;;;;;;4.37;3.97;;;23.20;72.80;;;23.79;50.89;95017.25;5072642;28;20455;-57
2023/08/19 02:10:11;;;;;;;9.83;4.40;;;23.20;72.70;;;23.77;50.91;95021.19;5075139;28;20519;-60
2023/08/19 02:12:38;;;;;;;7.27;4.87;;;23.20;72.90;;;23.76;51.24;95019.56;5070912;28;20530;-58
2023/08/19 02:15:07;;;;;;;8.20;3.90;;;23.20;72.90;;;23.75;50.67;95020.56;5071881;28;20499;-59
2023/08/19 02:17:35;;;;;;;7.73;4.10;;;23.20;72.90;;;23.73;50.68;95019.97;5068603;28;20497;-58
2023/08/19 02:20:03;;;;;;;6.43;4.03;;;23.20;73.20;;;23.73;51.04;95017.31;5071204;28;20455;-59
2023/08/19 02:22:31;;;;;;;9.27;4.20;;;23.10;73.00;;;23.71;50.53;95022.88;5069608;28;20461;-59
2023/08/19 02:24:58;;;;;;;8.63;3.60;;;23.20;73.20;;;23.72;50.50;95023.69;5072786;28;20455;-60
2023/08/19 02:27:26;;;;;;;4.80;3.57;;;23.20;73.20;;;23.72;50.44;95021.00;5074011;28;20462;-59
2023/08/19 02:29:53;;;;;;;4.80;4.03;;;23.10;73.00;;;23.70;50.54;95020.41;5073335;28;20494;-59
2023/08/19 02:32:21;;;;;;;6.07;4.47;;;23.10;73.30;;;23.67;51.11;95020.84;5073736;28;20559;-59
2023/08/19 02:34:49;;;;;;;10.67;4.23;;;23.10;73.30;;;23.63;50.78;95025.84;5069786;28;20474;-58
2023/08/19 02:37:16;;;;;;;6.20;4.20;;;23.10;73.30;;;23.58;50.95;95023.81;5071230;28;20490;-58
2023/08/19 02:39:44;;;;;;;6.53;5.30;;;23.00;73.30;;;23.52;51.52;95024.69;5071472;28;20470;-59
2023/08/19 02:42:15;;;;;;;31.67;4.03;;;23.00;73.60;;;;;;5068557;28;20458;-60
2023/08/19 02:44:42;;;;;;;6.43;4.10;;;22.90;73.90;;;23.44;51.82;95030.31;5070779;28;20553;-57
2023/08/19 02:47:10;;;;;;;6.60;4.50;;;22.90;74.00;;;23.44;51.73;95033.00;5074661;28;20957;-58
2023/08/19 02:49:37;;;;;;;20.03;4.80;;;22.90;75.00;;;23.41;51.76;95033.44;5070639;28;20867;-58
2023/08/19 02:52:06;;;;;;;4.63;4.17;;;22.80;74.00;;;23.37;52.01;95027.66;5069404;28;20457;-59
2023/08/19 02:54:34;;;;;;;7.77;4.90;;;22.80;74.20;;;23.34;51.98;95032.66;5070489;28;20485;-58
2023/08/19 02:57:01;;;;;;;10.33;4.20;;;22.80;74.50;;;23.28;51.96;95034.31;5068550;28;20493;-58
2023/08/19 02:59:28;;;;;;;4.33;3.93;;;22.70;74.40;;;23.22;51.98;95024.44;5068676;28;20933;-59
2023/08/19 03:01:55;;;;;;;5.27;4.37;;;22.70;74.60;;;23.21;51.97;95028.19;5073347;28;20466;-60
2023/08/19 03:04:23;;;;;;;5.70;3.47;;;22.70;74.70;;;23.17;52.57;95024.28;5073073;28;20581;-58
2023/08/19 03:06:50;;;;;;;7.63;4.10;;;22.60;74.80;;;23.14;51.52;95024.69;5071613;28;20532;-60
2023/08/19 03:09:19;;;;;;;6.03;4.17;;;22.60;74.80;;;23.11;52.36;95033.19;5070827;28;20486;-60
2023/08/19 03:11:46;;;;;;;6.27;4.37;;;22.60;75.00;;;23.08;52.25;95032.59;5074554;28;20512;-59
2023/08/19 03:14:13;;;;;;;6.60;4.30;;;22.50;74.90;;;23.06;52.55;95033.78;5070073;28;20470;-60
2023/08/19 03:16:40;;;;;;;7.50;4.57;;;22.50;75.20;;;23.04;52.30;95030.50;5068422;28;20934;-59
2023/08/19 03:19:08;;;;;;;5.07;4.20;;;22.50;75.10;;;23.01;52.48;95029.06;5065524;28;20490;-59
2023/08/19 03:21:36;;;;;;;14.37;4.33;;;22.50;76.10;;;22.96;52.61;95026.22;5067406;28;20530;-59
2023/08/19 03:24:04;;;;;;;5.77;3.63;;;22.40;75.10;;;22.96;51.88;95030.72;5068043;28;20466;-59
2023/08/19 03:26:33;;;;;;;4.90;4.50;;;22.40;75.40;;;22.93;52.63;95026.63;5075662;28;20469;-60
2023/08/19 03:29:00;;;;;;;8.83;3.70;;;22.40;75.40;;;22.88;52.08;95031.78;5072756;28;20937;-58
2023/08/19 03:31:27;;;;;;;5.33;4.83;;;22.30;75.70;;;22.81;52.83;95034.50;5068901;28;20506;-60
2023/08/19 03:33:55;;;;;;;6.13;4.13;;;22.30;75.70;;;22.77;52.52;95022.56;5068273;28;20479;-58
2023/08/19 03:36:22;;;;;;;6.17;4.03;;;22.30;75.70;;;22.74;52.28;95029.19;5067384;28;20556;-59
2023/08/19 03:38:49;;;;;;;8.30;4.20;;;22.20;75.60;;;22.71;52.21;95024.25;5074321;28;20540;-59
2023/08/19 03:41:16;;;;;;;4.60;4.17;;;22.20;75.60;;;22.69;53.11;95030.84;5067321;28;20452;-58
2023/08/19 03:43:45;;;;;;;6.57;5.60;;;22.20;75.60;;;22.67;52.93;95031.06;5071351;28;20616;-58
2023/08/19 03:46:12;;;;;;;8.57;7.70;;;22.10;75.50;;;22.67;52.81;95030.22;5072665;28;20447;-59
2023/08/19 03:48:39;;;;;;;6.40;4.00;;;22.10;75.50;;;22.67;52.59;95033.72;5068261;28;20466;-58
2023/08/19 03:51:07;;;;;;;6.70;4.13;;;22.10;76.30;;;22.65;52.30;95030.44;5068717;28;20443;-60
2023/08/19 03:53:34;;;;;;;15.00;5.47;;;22.10;75.50;;;22.65;52.61;95035.81;5068948;28;20994;-60
2023/08/19 03:56:01;;;;;;;23.00;9.37;;;22.10;75.90;;;22.67;52.50;95038.28;5070655;28;20542;-61
2023/08/19 03:58:28;;;;;;;31.77;5.73;;;22.10;75.90;;;22.69;52.67;95044.25;5073697;28;21107;-59
2023/08/19 04:01:04;;;;;;;4.80;4.40;;;22.10;76.10;;;22.72;53.11;95043.81;5070259;28;20454;-59
2023/08/19 04:03:32;;;;;;;6.30;4.70;;;22.10;75.90;;;22.73;52.33;95038.25;5071449;28;20481;-60
2023/08/19 04:05:59;;;;;;;54.57;36.73;;;22.20;76.20;;;22.78;52.25;95039.47;5072235;28;20454;-60
2023/08/19 04:08:26;;;;;;;20.10;11.10;;;22.20;76.10;;;22.80;52.56;95040.91;5065727;28;20563;-59
2023/08/19 04:10:53;;;;;;;9.07;4.90;;;22.20;75.80;;;22.84;52.68;95039.44;5067548;28;20455;-60
2023/08/19 04:13:20;;;;;;;8.47;4.20;;;22.30;76.30;;;22.88;52.37;95046.03;5069676;28;20537;-59
2023/08/19 04:15:48;;;;;;;9.90;4.60;;;22.30;75.80;;;22.91;52.03;95045.63;5073880;28;20457;-58
2023/08/19 04:18:16;;;;;;;7.07;4.87;;;22.30;76.00;;;22.95;52.66;95050.56;5070309;28;20498;-59
2023/08/19 04:20:44;;;;;;;7.47;4.80;;;22.40;75.90;;;22.99;52.84;95051.75;5069234;28;20454;-59
2023/08/19 04:23:13;;;;;;;4.80;4.33;;;22.40;75.90;;;22.98;52.79;95053.63;5067471;28;20912;-58
2023/08/19 04:25:40;;;;;;;5.57;4.10;;;22.40;75.90;;;22.98;52.49;95044.78;5072150;28;20469;-58
2023/08/19 04:28:14;;;;;;;15.37;5.00;;;22.40;75.90;;;22.98;52.45;95050.94;5075934;28;20549;-60
2023/08/19 04:30:41;;;;;;;9.30;4.77;;;22.40;76.30;;;23.00;52.35;95053.41;5076057;28;20451;-60
2023/08/19 04:33:08;;;;;;;6.73;4.90;;;22.40;76.30;;;23.03;52.32;95053.00;5073048;28;21095;-60
2023/08/19 04:35:37;;;;;;;18.73;5.60;;;22.50;76.50;;;23.04;52.51;95058.16;5073950;28;20453;-61
2023/08/19 04:38:04;;;;;;;7.07;5.80;;;22.50;76.40;;;23.11;52.57;95055.47;5076592;28;20505;-60
2023/08/19 04:40:32;;;;;;;8.50;5.73;;;22.60;76.70;;;23.16;52.81;95058.34;5075987;28;20983;-59
2023/08/19 04:42:59;;;;;;;11.23;4.60;;;22.60;76.70;;;23.21;51.99;95060.38;5078526;28;20483;-58
2023/08/19 04:45:26;;;;;;;6.33;4.20;;;22.60;76.00;;;23.23;52.34;95063.66;5075599;28;20443;-60
2023/08/19 04:47:54;;;;;;;4.97;4.57;;;22.60;76.00;;;23.22;51.65;95062.84;5071578;28;20483;-57
2023/08/19 04:50:21;;;;;;;5.63;4.43;;;22.60;76.00;;;23.25;52.18;95073.16;5074444;28;20466;-59
2023/08/19 04:52:50;;;;;;;14.20;4.60;;;22.70;76.20;;;23.27;52.43;95065.72;5072797;28;20522;-58
2023/08/19 04:55:18;;;;;;;4.23;3.60;;;22.70;76.10;;;23.31;51.89;95070.66;5073220;28;20537;-60
2023/08/19 04:57:45;;;;;;;15.20;4.80;;;22.70;76.20;;;23.31;52.21;95078.69;5072159;28;20486;-58
2023/08/19 05:00:15;;;;;;;8.87;5.47;;;22.70;76.10;;;23.30;52.33;95075.22;5077165;28;20442;-59
2023/08/19 05:02:42;;;;;;;11.20;4.43;;;22.70;76.10;;;23.30;52.20;95082.41;5077407;28;20459;-59
2023/08/19 05:05:09;;;;;;;7.13;4.60;;;22.70;76.10;;;23.30;51.65;95079.72;5073553;28;20451;-62
2023/08/19 05:07:37;;;;;;;8.27;4.47;;;22.70;76.10;;;23.33;51.84;95076.63;5075939;28;20535;-60
2023/08/19 05:10:06;;;;;;;25.90;17.53;;;22.70;76.10;;;23.38;51.93;95079.50;5071532;28;20447;-59
2023/08/19 05:12:34;;;;;;;6.40;5.63;;;22.80;76.20;;;23.45;51.41;95082.97;5068100;28;20458;-60
2023/08/19 05:15:02;;;;;;;6.37;5.00;;;22.90;76.30;;;23.52;51.88;95089.13;5071541;28;20893;-59
2023/08/19 05:17:29;;;;;;;8.80;4.57;;;22.90;76.00;;;23.57;51.29;95088.47;5072237;28;20546;-59
2023/08/19 05:19:56;;;;;;;4.57;4.17;;;23.00;75.90;;;23.61;51.85;95079.78;5069379;28;20512;-59
2023/08/19 05:22:23;;;;;;;5.00;4.60;;;23.00;75.60;;;23.63;51.41;95090.31;5070682;28;20955;-61
2023/08/19 05:24:51;;;;;;;5.63;4.23;;;23.10;75.40;;;23.63;51.58;95087.63;5071165;28;20458;-60
2023/08/19 05:27:19;;;;;;;4.97;4.40;;;23.10;75.30;;;23.61;51.14;95093.19;5077759;28;20460;-58
2023/08/19 05:29:47;;;;;;;10.30;4.90;;;23.10;75.40;;;23.65;51.75;95098.94;5069298;28;20603;-57
2023/08/19 05:32:14;;;;;;;4.83;4.40;;;23.10;75.40;;;23.68;51.52;95087.78;5073620;28;20483;-58
2023/08/19 05:34:41;;;;;;;7.23;3.93;;;23.10;75.40;;;23.73;51.41;95084.44;5072267;28;20474;-60
2023/08/19 05:37:09;;;;;;;16.27;4.70;;;23.10;75.30;;;23.84;50.80;95085.63;5071250;28;20925;-60
2023/08/19 05:39:37;;;;;;;5.00;4.17;;;23.20;75.40;;;23.98;51.46;95088.03;5070807;28;20607;-60
2023/08/19 05:42:07;;;;;;;17.23;4.87;;;23.30;75.40;;;24.13;50.60;95089.56;5073198;28;20950;-60
2023/08/19 05:44:35;;;;;;;8.27;4.37;;;23.50;75.00;;;24.27;50.42;95079.53;5076844;28;20593;-60
2023/08/19 05:47:03;;;;;;;9.23;4.37;;;23.60;74.80;;;24.42;50.25;95079.19;5072623;28;20531;-60
2023/08/19 05:49:30;;;;;;;6.20;4.67;;;23.70;74.60;;;24.61;50.23;95080.88;5071603;28;20569;-60
2023/08/19 05:51:58;;;;;;;6.53;4.20;;;23.90;74.40;;;24.80;50.25;95075.50;5072007;28;20983;-59
2023/08/19 05:54:25;;;;;;;9.43;3.73;;;24.10;74.10;;;24.99;49.76;95082.56;5073323;28;20478;-57
2023/08/19 05:56:52;;;;;;;7.10;4.20;;;24.30;73.70;;;25.17;49.18;95078.19;5074385;28;20466;-59
2023/08/19 05:59:19;;;;;;;7.17;5.30;;;24.40;73.30;;;25.38;49.07;95075.06;5074977;28;20570;-56
2023/08/19 06:01:48;;;;;;;14.53;4.87;;;24.60;72.90;;;25.58;48.19;95072.09;5075534;28;20458;-59
2023/08/19 06:04:15;;;;;;;9.60;5.33;;;24.80;72.40;;;25.81;48.11;95083.16;5068299;28;20490;-58
2023/08/19 06:06:43;;;;;;;4.90;3.80;;;25.10;72.80;;;25.99;47.99;95082.31;5070505;28;20787;-59
2023/08/19 06:09:10;;;;;;;11.80;4.47;;;25.20;71.80;;;26.17;47.49;95092.19;5072155;28;20480;-59
2023/08/19 06:11:47;;;;;;;6.60;4.30;;;25.40;70.80;;;26.32;46.74;95097.13;5069951;28;20458;-60
2023/08/19 06:14:14;;;;;;;6.03;3.90;;;25.60;70.20;;;26.47;46.66;95098.31;5074903;28;20534;-61
2023/08/19 06:16:42;;;;;;;11.50;3.83;;;25.70;69.70;;;26.64;46.60;95094.91;5069233;28;20469;-59
2023/08/19 06:19:11;;;;;;;4.43;4.03;;;25.90;69.40;;;26.78;45.91;95092.81;5071312;28;20501;-60
2023/08/19 06:21:38;;;;;;;10.27;3.93;;;26.00;68.50;;;26.89;45.59;95096.56;5069535;28;20445;-60
2023/08/19 06:24:07;;;;;;;5.23;4.10;;;26.10;68.30;;;27.02;44.92;95104.44;5070968;28;20515;-60
2023/08/19 06:26:34;;;;;;;9.87;3.27;;;26.30;66.70;;;27.16;44.75;95089.59;5070843;28;20458;-60
2023/08/19 06:29:02;;;;;;;6.60;3.27;;;26.40;66.30;;;27.29;44.29;95103.91;5075970;28;20969;-60
2023/08/19 06:31:29;;;;;;;5.53;3.53;;;26.50;66.60;;;27.33;44.29;95100.50;5073137;28;20541;-62
2023/08/19 06:33:58;;;;;;;4.00;3.53;;;26.60;65.40;;;27.48;43.64;95100.00;5066315;28;20493;-59
2023/08/19 06:36:29;;;;;;;5.20;3.80;;;26.70;65.10;;;27.68;43.31;95094.13;5068054;28;20450;-60
2023/08/19 06:39:05;;;;;;;13.33;4.90;;;26.90;65.00;;;27.87;42.98;95100.19;5068709;28;21024;-59
2023/08/19 06:41:34;;;;;;;5.77;3.37;;;27.10;64.40;;;28.03;43.11;95105.88;5069889;28;20513;-59
2023/08/19 06:44:03;;;;;;;4.30;4.00;;;27.20;63.90;;;28.18;42.84;95111.56;5074237;28;20475;-61
2023/08/19 06:46:31;;;;;;;13.90;5.77;;;27.40;63.40;;;28.29;42.09;95107.16;5078624;28;20454;-59
2023/08/19 06:48:59;;;;;;;6.33;3.80;;;27.50;62.60;;;28.36;42.50;95109.69;5070503;28;20470;-60
2023/08/19 06:51:29;;;;;;;8.10;4.00;;;27.60;62.70;;;28.49;41.99;95106.66;5068746;28;20456;-59
2023/08/19 06:53:58;;;;;;;7.53;4.10;;;27.70;62.70;;;28.59;41.77;95104.13;5067783;28;20481;-58
2023/08/19 06:56:29;;;;;;;4.83;4.10;;;27.80;62.30;;;28.72;41.34;95111.09;5073850;28;20464;-58
2023/08/19 06:59:02;;;;;;;4.27;3.30;;;27.90;62.20;;;28.82;41.67;95110.41;5072366;28;20490;-58
2023/08/19 07:01:31;;;;;;;11.83;4.70;;;28.00;61.90;;;28.95;41.70;95109.22;5072479;28;20439;-58
2023/08/19 07:03:59;;;;;;;6.20;3.80;;;28.20;61.80;;;29.06;40.64;95104.78;5075486;28;20481;-58
2023/08/19 07:06:28;;;;;;;4.50;4.10;;;28.20;60.90;;;29.12;40.79;95104.56;5070467;28;20457;-59
2023/08/19 07:08:55;;;;;;;5.60;3.70;;;28.30;60.90;;;29.22;40.67;95101.25;5072976;28;20478;-59
2023/08/19 07:11:23;;;;;;;10.47;4.27;;;28.40;60.90;;;29.37;41.15;95094.34;5069949;28;20460;-60
2023/08/19 07:13:51;;;;;;;14.20;3.77;;;28.60;60.40;;;29.53;40.73;95101.59;5070541;28;20588;-59
2023/08/19 07:16:19;;;;;;;7.17;4.17;;;28.70;59.80;;;29.69;40.15;95102.59;5074231;28;20986;-61
2023/08/19 07:18:49;;;;;;;5.20;3.40;;;28.90;59.70;;;29.89;40.33;95099.31;5069940;28;20281;-59
2023/08/19 07:21:16;;;;;;;4.77;3.70;;;29.00;59.40;;;30.05;40.07;95100.25;5071677;28;20200;-60
2023/08/19 07:23:47;;;;;;;4.23;3.17;;;29.20;59.10;;;30.21;39.47;95104.75;5070776;28;20207;-59
2023/08/19 07:26:14;;;;;;;9.93;3.10;;;29.40;58.90;;;30.38;38.94;95104.63;5070032;28;20200;-59
2023/08/19 07:28:43;;;;;;;7.10;3.30;;;29.50;58.40;;;30.44;38.92;95101.97;5071426;28;20232;-60
2023/08/19 07:31:10;;;;;;;6.27;3.93;;;29.60;57.50;;;30.55;37.71;95100.97;5068627;28;20208;-58
2023/08/19 07:33:38;;;;;;;4.63;3.43;;;29.70;57.20;;;30.62;37.26;95098.88;5073494;28;20243;-59
2023/08/19 07:36:07;;;;;;;13.63;3.53;;;29.80;56.20;;;30.72;37.54;95098.94;5068798;28;20204;-60
2023/08/19 07:38:34;;;;;;;17.77;3.43;;;29.90;55.80;;;30.91;36.11;95098.50;5071035;28;20566;-58
2023/08/19 07:41:03;;;;;;;13.37;3.70;;;30.00;55.00;;;31.08;35.33;95107.31;5071613;28;20231;-58
2023/08/19 07:43:30;;;;;;;5.90;3.13;;;30.20;53.70;;;31.27;36.09;95104.16;5075617;28;20306;-60
2023/08/19 07:45:57;;;;;;;23.80;3.43;;;30.40;53.80;;;31.46;35.46;95110.78;5070741;28;20226;-60
2023/08/19 07:48:25;;;;;;;10.53;3.33;;;30.60;53.80;;;31.59;35.02;95114.13;5069501;28;20296;-60
2023/08/19 07:50:52;;;;;;;3.00;2.27;;;30.70;53.30;;;31.62;33.84;95102.69;5072686;28;20586;-58
2023/08/19 07:53:20;;;;;;;4.03;2.57;;;30.80;51.70;;;31.61;34.05;95106.50;5067416;28;21036;-58
2023/08/19 07:55:47;;;;;;;4.55;3.10;;;30.90;51.40;;;31.69;34.05;95108.69;5072774;28;20713;-60
2023/08/19 07:58:16;;;;;;;5.83;3.27;;;30.90;51.40;;;31.79;33.49;95114.16;5077805;28;20303;-59
2023/08/19 08:00:43;;;;;;;2.53;2.33;;;31.00;51.00;;;31.81;32.65;95114.72;5073447;28;20291;-59
2023/08/19 08:03:11;;;;;;;3.03;2.83;;;31.00;50.10;;;31.75;32.81;95107.63;5073006;28;20220;-59
2023/08/19 08:05:38;;;;;;;3.70;2.55;;;31.00;50.30;;;31.67;32.90;95102.72;5075046;28;20204;-57
2023/08/19 08:08:06;;;;;;;2.70;2.40;;;31.00;49.80;;;31.55;32.73;95110.28;5074904;28;20222;-63
2023/08/19 08:10:33;;;;;;;6.05;3.13;;;30.90;49.80;;;31.53;33.16;95112.44;5073185;28;20703;-57
2023/08/19 08:13:01;;;;;;;3.70;2.70;;;30.90;50.30;;;31.66;33.09;95095.63;5076382;28;20231;-60
2023/08/19 08:15:30;;;;;;;4.28;2.90;;;31.00;50.10;;;31.75;32.91;95098.66;5074351;28;20208;-60
2023/08/19 08:17:58;;;;;;;9.85;3.40;;;31.10;49.70;;;31.99;32.99;95104.41;5073502;28;20302;-58
2023/08/19 08:20:25;;;;;;;8.00;3.95;;;31.30;50.20;;;32.22;32.87;95096.84;5074496;28;20227;-59
2023/08/19 08:22:52;;;;;;;6.75;2.60;;;31.50;50.10;;;32.42;32.49;95110.47;5076401;28;20262;-58
2023/08/19 08:25:20;;;;;;;6.40;3.35;;;31.70;49.60;;;32.59;32.37;95101.22;5071969;28;20287;-59
2023/08/19 08:27:47;;;;;;;9.93;3.88;;;31.90;49.70;;;32.80;32.23;95102.03;5082510;28;20222;-59
2023/08/19 08:30:15;;;;;;;9.13;4.85;;;32.00;49.30;;;33.01;32.26;95108.25;5071511;28;20192;-59
2023/08/19 08:32:43;;;;;;;5.15;3.58;;;32.20;49.30;;;33.24;32.35;95106.84;5075954;28;20258;-59
2023/08/19 08:35:11;;;;;;;4.03;2.60;;;32.40;49.30;;;33.39;31.23;95100.53;5076889;28;20199;-61
2023/08/19 08:37:38;;;;;;;22.63;3.53;;;32.50;48.20;;;33.46;32.23;95098.31;5075186;28;20287;-59
2023/08/19 08:40:08;;;;;;;3.90;3.60;;;32.70;48.70;;;33.55;31.01;95093.91;5081001;28;20219;-60
2023/08/19 08:42:35;;;;;;;7.82;4.03;;;32.80;47.90;;;33.62;31.47;95103.69;5077622;28;20203;-60
2023/08/19 08:45:02;;;;;;;3.70;3.35;;;32.80;48.60;;;33.74;31.96;95101.50;5078773;28;20192;-59
2023/08/19 08:47:30;;;;;;;3.38;3.17;;;32.90;48.70;;;33.94;31.36;95095.94;5072148;28;20192;-59
2023/08/19 08:49:59;;;;;;;5.07;2.83;;;33.10;48.70;;;34.15;31.37;95098.53;5074113;28;20199;-60
2023/08/19 08:52:26;;;;;;;3.78;2.63;;;33.30;48.30;;;34.32;31.35;95094.59;5076798;28;20191;-59
2023/08/19 08:54:53;;;;;;;11.98;4.38;;;33.50;48.20;;;34.38;31.09;95105.22;5077075;28;20265;-60
2023/08/19 08:57:21;;;;;;;3.47;3.17;;;33.60;48.00;;;34.50;31.03;95096.63;5080675;28;20215;-59
2023/08/19 08:59:48;;;;;;;5.15;2.95;;;33.70;48.00;;;34.66;30.48;95092.66;5077437;28;20227;-59
2023/08/19 09:02:15;;;;;;;10.95;3.83;;;33.80;47.50;;;34.84;31.17;95095.81;5077440;28;20212;-59
2023/08/19 09:04:44;;;;;;;24.98;4.13;;;34.00;47.60;;;34.97;30.87;95106.06;5076494;28;20650;-59
2023/08/19 09:07:18;;;;;;;10.30;3.13;;;34.10;47.60;;;35.07;30.08;95096.94;5076291;28;20336;-57
2023/08/19 09:09:46;;;;;;;10.13;3.60;;;34.20;46.90;;;35.14;29.82;95096.63;5070820;28;20220;-59
2023/08/19 09:12:14;;;;;;;10.90;4.20;;;34.30;46.50;;;35.14;29.82;95088.41;5066881;28;20287;-57
2023/08/19 09:14:42;;;;;;;5.50;2.85;;;34.30;46.80;;;35.10;29.57;95098.28;5079834;28;20215;-59
2023/08/19 09:17:12;;;;;;;6.00;3.00;;;34.30;46.10;;;34.84;30.28;95090.34;5076611;28;20285;-58
2023/08/19 09:19:39;;;;;;;10.88;3.92;;;34.20;46.10;;;34.74;30.91;95090.44;5078914;28;20238;-59
2023/08/19 09:22:21;;;;;;;4.53;2.58;;;34.00;46.50;;;34.74;29.61;95084.97;5077864;28;20556;-60
2023/08/19 09:24:48;;;;;;;5.25;3.47;;;34.00;45.90;;;34.66;30.13;95081.75;5076546;28;20704;-59
2023/08/19 09:27:19;;;;;;;10.38;3.00;;;34.00;46.50;;;34.65;30.42;95084.75;5075700;28;20200;-58
2023/08/19 09:29:50;;;;;;;3.30;2.65;;;33.90;46.60;;;34.65;30.85;95077.38;5077488;28;20311;-60
2023/08/19 09:32:20;;;;;;;2.92;2.63;;;33.90;46.40;;;34.57;30.19;95078.00;5077419;28;20326;-59
2023/08/19 09:34:48;;;;;;;12.50;3.35;;;33.80;45.80;;;34.51;30.28;95072.88;5078392;28;20212;-58
2023/08/19 09:37:18;;;;;;;7.70;3.05;;;33.80;46.30;;;34.50;29.77;95073.97;5073031;28;20260;-58
2023/08/19 09:39:46;;;;;;;5.50;3.20;;;33.70;46.00;;;34.58;30.44;95081.53;5075945;28;20231;-58
2023/08/19 09:42:13;;;;;;;6.63;3.03;;;33.80;45.90;;;34.68;30.21;95070.53;5078081;28;20200;-59
2023/08/19 09:44:41;;;;;;;4.25;2.58;;;33.80;46.10;;;34.78;29.67;95069.63;5076322;28;20649;-59
2023/08/19 09:47:08;;;;;;;5.38;2.53;;;33.90;45.30;;;34.81;29.72;95082.72;5079321;28;20189;-57
2023/08/19 09:49:37;;;;;;;11.35;1.90;;;34.00;44.70;;;34.68;29.18;95062.31;5075844;28;20215;-58
2023/08/19 09:52:06;;;;;;;5.45;2.30;;;33.90;44.40;;;34.51;28.70;95073.69;5075369;28;20233;-56
2023/08/19 09:54:34;;;;;;;17.98;2.83;;;33.80;43.70;;;34.34;28.54;95070.56;5072405;28;20212;-58
2023/08/19 09:57:01;;;;;;;3.10;2.58;;;33.70;44.30;;;34.25;28.99;95079.34;5068703;28;20204;-59
2023/08/19 09:59:29;;;;;;;11.02;2.35;;;33.50;44.80;;;34.23;29.47;95069.78;5073286;28;20239;-59
2023/08/19 10:01:56;;;;;;;9.35;2.60;;;33.50;45.10;;;34.26;29.72;95066.53;5075323;28;20253;-59
2023/08/19 10:04:25;;;;;;;4.80;3.25;;;33.50;45.00;;;34.32;29.55;95070.00;5070039;28;20216;-57
2023/08/19 10:06:53;;;;;;;36.85;10.07;;;33.50;45.00;;;34.45;29.82;95063.91;5067019;28;20225;-60
2023/08/19 10:09:24;;;;;;;3.88;2.90;;;33.60;45.50;;;34.53;29.25;95065.19;5072674;28;20215;-59
2023/08/19 10:11:54;;;;;;;3.13;2.75;;;33.70;45.50;;;34.56;28.75;95070.09;5070497;28;20215;-58
2023/08/19 10:14:26;;;;;;;2.97;2.40;;;33.70;44.30;;;34.46;29.14;95065.53;5071082;28;20293;-59
2023/08/19 10:16:53;;;;;;;4.47;2.67;;;33.70;44.40;;;34.20;28.16;95068.44;5072284;28;20199;-58
2023/08/19 10:19:21;;;;;;;2.20;1.98;;;33.50;43.50;;;33.85;28.50;95066.78;5071249;28;20243;-59
2023/08/19 10:21:49;;;;;;;6.25;2.53;;;33.20;43.70;;;33.53;29.16;95062.56;5073825;28;20217;-59